createdAt,value
2022-12-13T00:01:46.356Z,30.05
2022-12-13T00:04:13.779Z,29.89
2022-12-13T00:06:40.278Z,29.89
2022-12-13T00:09:06.805Z,30.33
2022-12-13T00:11:33.251Z,29.59
2022-12-13T00:13:59.827Z,29.58
2022-12-13T00:16:26.603Z,29.96
2022-12-13T00:18:55.408Z,29.71
2022-12-13T00:21:23.253Z,29.86
2022-12-13T00:23:50.067Z,29.97
2022-12-13T00:26:18.629Z,29.90
2022-12-13T00:28:46.126Z,29.92
2022-12-13T00:31:51.765Z,29.84
2022-12-13T00:33:59.634Z,28.17
2022-12-13T00:36:26.368Z,28.15
2022-12-13T00:39:00.488Z,28.41
2022-12-13T00:41:34.795Z,28.38
2022-12-13T00:44:01.250Z,28.42
2022-12-13T00:46:28.076Z,28.42
2022-12-13T00:48:57.138Z,28.46
2022-12-13T00:51:23.679Z,28.27
2022-12-13T00:53:50.304Z,28.26
2022-12-13T00:56:18.379Z,28.34
2022-12-13T00:58:50.167Z,28.27
2022-12-13T01:01:19.514Z,28.09
2022-12-13T01:03:46.086Z,28.24
2022-12-13T01:06:20.343Z,28.54
2022-12-13T01:08:47.433Z,28.68
2022-12-13T01:11:14.520Z,28.60
2022-12-13T01:13:40.974Z,28.44
2022-12-13T01:16:08.719Z,28.57
2022-12-13T01:18:35.305Z,28.65
2022-12-13T01:21:12.307Z,28.75
2022-12-13T01:23:38.933Z,28.67
2022-12-13T01:26:06.769Z,28.50
2022-12-13T01:28:33.399Z,28.73
2022-12-13T01:31:01.749Z,28.68
2022-12-13T01:33:28.792Z,28.44
2022-12-13T01:35:55.324Z,28.56
2022-12-13T01:38:21.794Z,28.65
2022-12-13T01:41:02.026Z,28.60
2022-12-13T01:43:42.884Z,28.48
2022-12-13T01:46:10.305Z,28.46
2022-12-13T01:48:52.531Z,28.25
2022-12-13T01:51:20.883Z,28.18
2022-12-13T01:53:47.341Z,28.45
2022-12-13T01:56:20.922Z,28.38
2022-12-13T01:58:47.477Z,28.41
2022-12-13T02:01:13.995Z,28.63
2022-12-13T02:03:40.484Z,28.62
2022-12-13T02:06:07.152Z,28.52
2022-12-13T02:08:35.776Z,28.61
2022-12-13T02:11:02.758Z,28.65
2022-12-13T02:13:29.232Z,28.56
2022-12-13T02:16:13.735Z,28.62
2022-12-13T02:18:57.949Z,28.62
2022-12-13T02:21:38.125Z,28.66
2022-12-13T02:24:29.424Z,28.47
2022-12-13T02:27:14.828Z,28.63
2022-12-13T02:30:01.885Z,28.59
2022-12-13T02:32:33.160Z,28.60
2022-12-13T02:35:11.784Z,28.54
2022-12-13T02:38:00.095Z,28.48
2022-12-13T02:40:29.606Z,28.54
2022-12-13T02:43:02.445Z,28.30
2022-12-13T02:45:38.860Z,28.26
2022-12-13T02:48:05.777Z,28.20
2022-12-13T02:50:32.285Z,28.15
2022-12-13T02:52:58.793Z,28.04
2022-12-13T02:55:28.132Z,28.11
2022-12-13T02:57:54.921Z,28.30
2022-12-13T03:00:24.502Z,28.35
2022-12-13T03:03:18.729Z,28.29
2022-12-13T03:06:22.961Z,28.34
2022-12-13T03:09:09.383Z,28.14
2022-12-13T03:12:29.479Z,28.18
2022-12-13T03:15:00.836Z,27.99
2022-12-13T03:17:27.604Z,27.90
2022-12-13T03:19:54.100Z,28.04
2022-12-13T03:22:20.877Z,28.05
2022-12-13T03:24:47.410Z,28.00
2022-12-13T03:27:13.917Z,28.09
2022-12-13T03:29:40.487Z,27.90
2022-12-13T03:32:07.186Z,27.89
2022-12-13T03:34:43.087Z,27.85
2022-12-13T03:37:11.401Z,27.79
2022-12-13T03:39:37.864Z,27.66
2022-12-13T03:42:04.362Z,27.69
2022-12-13T03:44:31.402Z,27.60
2022-12-13T03:46:58.281Z,27.53
2022-12-13T03:49:27.388Z,27.78
2022-12-13T03:52:02.188Z,27.66
2022-12-13T03:54:28.633Z,27.49
2022-12-13T03:56:55.119Z,27.72
2022-12-13T03:59:21.585Z,27.74
2022-12-13T04:01:48.384Z,27.70
2022-12-13T04:04:14.894Z,27.49
2022-12-13T04:06:41.366Z,27.70
2022-12-13T04:09:07.809Z,27.56
2022-12-13T04:11:52.768Z,27.74
2022-12-13T04:14:22.257Z,27.58
2022-12-13T04:16:49.842Z,27.79
2022-12-13T04:19:16.355Z,27.77
2022-12-13T04:21:50.001Z,27.88
2022-12-13T04:24:16.457Z,27.86
2022-12-13T04:26:42.953Z,27.74
2022-12-13T04:29:09.411Z,27.62
2022-12-13T04:31:35.909Z,27.83
2022-12-13T04:34:02.424Z,27.90
2022-12-13T04:36:31.474Z,27.81
2022-12-13T04:38:58.828Z,27.70
2022-12-13T04:41:27.271Z,27.84
2022-12-13T04:44:01.273Z,27.77
2022-12-13T04:46:27.725Z,27.92
2022-12-13T04:48:54.569Z,27.75
2022-12-13T04:51:21.018Z,27.58
2022-12-13T04:53:47.461Z,27.67
2022-12-13T04:56:13.977Z,27.96
2022-12-13T04:58:40.691Z,27.91
2022-12-13T05:01:11.225Z,27.82
2022-12-13T05:03:38.158Z,27.83
2022-12-13T05:06:26.894Z,27.80
2022-12-13T05:08:54.362Z,27.77
2022-12-13T05:11:22.973Z,27.79
2022-12-13T05:13:49.630Z,27.96
2022-12-13T05:16:16.202Z,27.99
2022-12-13T05:18:42.727Z,27.99
2022-12-13T05:21:10.248Z,27.92
2022-12-13T05:23:36.721Z,28.00
2022-12-13T05:26:03.246Z,27.93
2022-12-13T05:28:29.910Z,27.81
2022-12-13T05:30:57.824Z,28.02
2022-12-13T05:33:24.554Z,27.84
2022-12-13T05:35:53.826Z,27.96
2022-12-13T05:38:22.721Z,28.03
2022-12-13T05:40:49.196Z,27.99
2022-12-13T05:43:21.241Z,27.90
2022-12-13T05:45:48.926Z,28.13
2022-12-13T05:48:15.413Z,27.95
2022-12-13T05:50:51.173Z,28.39
2022-12-13T05:53:30.692Z,28.07
2022-12-13T05:56:01.240Z,28.23
2022-12-13T05:58:27.851Z,28.25
2022-12-13T06:01:13.103Z,28.42
2022-12-13T06:03:40.308Z,28.24
2022-12-13T06:06:08.517Z,28.25
2022-12-13T06:08:35.004Z,28.32
2022-12-13T06:11:11.100Z,28.35
2022-12-13T06:13:43.739Z,28.18
2022-12-13T06:16:22.520Z,28.33
2022-12-13T06:18:50.521Z,28.17
2022-12-13T06:21:17.394Z,28.07
2022-12-13T06:23:44.209Z,27.91
2022-12-13T06:26:10.675Z,28.03
2022-12-13T06:28:37.163Z,27.91
2022-12-13T06:31:04.970Z,27.69
2022-12-13T06:33:35.411Z,27.60
2022-12-13T06:36:02.017Z,27.61
2022-12-13T06:38:31.126Z,27.63
2022-12-13T06:41:12.779Z,27.70
2022-12-13T06:43:41.844Z,27.52
2022-12-13T06:46:08.334Z,27.52
2022-12-13T06:48:35.803Z,27.51
2022-12-13T06:51:05.749Z,27.49
2022-12-13T06:53:32.289Z,27.56
2022-12-13T06:56:04.438Z,27.47
2022-12-13T06:58:30.938Z,27.34
2022-12-13T07:01:04.828Z,27.38
2022-12-13T07:03:32.142Z,27.44
2022-12-13T07:06:06.517Z,27.33
2022-12-13T07:08:33.229Z,27.42
2022-12-13T07:11:00.170Z,27.34
2022-12-13T07:13:26.622Z,27.45
2022-12-13T07:15:53.443Z,27.41
2022-12-13T07:18:27.607Z,27.25
2022-12-13T07:20:54.072Z,27.26
2022-12-13T07:23:24.322Z,27.45
2022-12-13T07:25:54.478Z,27.50
2022-12-13T07:28:21.292Z,27.51
2022-12-13T07:30:47.881Z,27.75
2022-12-13T07:33:22.219Z,27.72
2022-12-13T07:35:55.222Z,27.81
2022-12-13T07:38:22.318Z,27.66
2022-12-13T07:40:48.822Z,28.07
2022-12-13T07:43:16.092Z,27.92
2022-12-13T07:45:42.889Z,27.84
2022-12-13T07:48:09.370Z,27.75
2022-12-13T07:50:37.165Z,27.80
2022-12-13T07:53:07.825Z,27.93
2022-12-13T07:55:34.700Z,27.82
2022-12-13T07:58:08.600Z,27.91
2022-12-13T08:00:36.053Z,27.98
2022-12-13T08:03:02.600Z,27.73
2022-12-13T08:05:29.243Z,27.62
2022-12-13T08:08:09.359Z,27.55
2022-12-13T08:10:36.076Z,27.51
2022-12-13T08:13:03.189Z,27.32
2022-12-13T08:15:29.672Z,27.42
2022-12-13T08:17:57.173Z,26.93
2022-12-13T08:20:23.670Z,27.30
2022-12-13T08:23:02.148Z,26.96
2022-12-13T08:25:30.868Z,26.50
2022-12-13T08:28:02.135Z,26.49
2022-12-13T08:30:30.868Z,26.43
2022-12-13T08:32:57.595Z,24.98
2022-12-13T08:35:32.074Z,25.59
2022-12-13T08:38:01.105Z,25.63
2022-12-13T08:40:27.649Z,25.78
2022-12-13T08:42:55.261Z,25.70
2022-12-13T08:45:23.969Z,25.21
2022-12-13T08:47:50.437Z,25.11
2022-12-13T08:50:16.897Z,25.21
2022-12-13T08:52:44.894Z,25.25
2022-12-13T08:55:12.444Z,25.31
2022-12-13T08:57:39.503Z,25.25
2022-12-13T09:00:06.688Z,25.53
2022-12-13T09:02:33.165Z,25.66
2022-12-13T09:05:05.390Z,25.76
2022-12-13T09:07:31.855Z,25.88
2022-12-13T09:09:58.306Z,25.97
2022-12-13T09:12:33.851Z,26.07
2022-12-13T09:15:22.199Z,25.99
2022-12-13T09:17:52.471Z,26.03
2022-12-13T09:20:28.605Z,25.89
2022-12-13T09:23:02.193Z,26.11
2022-12-13T09:25:37.400Z,26.14
2022-12-13T09:28:09.293Z,26.06
2022-12-13T09:30:38.857Z,25.92
2022-12-13T09:33:25.575Z,26.11
2022-12-13T09:35:52.158Z,26.00
2022-12-13T09:38:18.646Z,26.08
2022-12-13T09:40:45.796Z,26.03
2022-12-13T09:43:22.016Z,25.96
2022-12-13T09:45:50.482Z,26.07
2022-12-13T09:48:22.309Z,25.92
2022-12-13T09:50:58.288Z,25.89
2022-12-13T09:53:36.964Z,25.97
2022-12-13T09:56:10.600Z,25.90
2022-12-13T09:58:37.611Z,25.73
2022-12-13T10:01:04.735Z,25.75
2022-12-13T10:03:31.191Z,25.78
2022-12-13T10:05:59.315Z,25.72
2022-12-13T10:08:45.239Z,25.95
2022-12-13T10:11:15.470Z,26.04
2022-12-13T10:17:33.156Z,26.03
2022-12-13T10:20:05.530Z,26.20
2022-12-13T10:22:31.959Z,26.35
2022-12-13T10:25:03.770Z,26.36
2022-12-13T10:27:35.207Z,26.17
2022-12-13T10:30:20.641Z,26.26
2022-12-13T10:32:58.697Z,26.37
2022-12-13T10:35:25.930Z,26.65
2022-12-13T10:37:52.888Z,26.48
2022-12-13T10:40:33.573Z,26.59
2022-12-13T10:43:14.003Z,26.52
2022-12-13T10:45:42.049Z,26.54
2022-12-13T10:48:18.494Z,26.42
2022-12-13T10:50:44.995Z,26.44
2022-12-13T10:53:14.673Z,26.52
2022-12-13T10:55:41.293Z,26.64
2022-12-13T10:58:09.413Z,26.51
2022-12-13T11:00:38.847Z,26.38
2022-12-13T11:03:05.378Z,26.37
2022-12-13T11:05:35.652Z,26.35
2022-12-13T11:08:22.694Z,26.24
2022-12-13T11:10:59.649Z,26.38
2022-12-13T11:13:34.074Z,26.20
2022-12-13T11:16:01.637Z,26.10
2022-12-13T11:18:34.808Z,26.04
2022-12-13T11:21:02.390Z,26.03
2022-12-13T11:23:39.628Z,26.08
2022-12-13T11:26:10.842Z,26.04
2022-12-13T11:28:43.992Z,26.06
2022-12-13T11:31:29.601Z,26.11
2022-12-13T11:34:02.271Z,25.76
2022-12-13T11:36:42.543Z,25.61
2022-12-13T11:39:08.947Z,25.71
2022-12-13T11:41:38.699Z,25.80
2022-12-13T11:44:23.379Z,26.04
2022-12-13T11:46:59.745Z,25.76
2022-12-13T11:49:39.038Z,25.98
2022-12-13T11:52:30.367Z,26.07
2022-12-13T11:55:01.265Z,26.18
2022-12-13T11:57:39.616Z,26.22
2022-12-13T12:00:17.742Z,26.40
2022-12-13T12:03:13.525Z,26.19
2022-12-13T12:05:42.833Z,26.21
2022-12-13T12:08:31.044Z,26.25
2022-12-13T12:11:21.178Z,26.33
2022-12-13T12:13:52.105Z,26.18
2022-12-13T12:16:35.925Z,26.35
2022-12-13T12:19:02.649Z,26.40
2022-12-13T12:22:13.125Z,26.47
2022-12-13T12:24:51.539Z,26.41
2022-12-13T12:27:28.351Z,26.45
2022-12-13T12:30:22.634Z,26.74
2022-12-13T12:33:27.742Z,26.58
2022-12-13T12:36:15.311Z,26.87
2022-12-13T12:39:06.858Z,26.77
2022-12-13T12:42:10.883Z,26.92
2022-12-13T12:44:49.348Z,26.87
2022-12-13T12:50:42.965Z,26.96
2022-12-13T12:53:41.952Z,27.16
2022-12-13T12:56:20.613Z,27.37
2022-12-13T12:58:52.392Z,27.43
2022-12-13T13:01:44.457Z,27.49
2022-12-13T13:04:12.105Z,27.60
2022-12-13T13:06:46.540Z,27.71
2022-12-13T13:09:17.412Z,27.64
2022-12-13T13:11:51.244Z,27.61
2022-12-13T13:14:36.933Z,27.56
2022-12-13T13:17:25.037Z,27.51
2022-12-13T13:20:26.018Z,27.71
2022-12-13T13:23:25.243Z,27.61
2022-12-13T13:26:22.892Z,27.65
2022-12-13T13:28:40.924Z,27.89
2022-12-13T13:31:08.890Z,27.73
2022-12-13T13:33:51.063Z,27.70
2022-12-13T13:36:46.334Z,27.88
2022-12-13T13:39:19.668Z,27.89
2022-12-13T13:42:10.996Z,27.85
2022-12-13T13:44:46.407Z,27.81
2022-12-13T13:47:16.651Z,27.86
2022-12-13T13:50:11.018Z,27.92
2022-12-13T13:52:59.249Z,27.98
2022-12-13T13:55:47.561Z,28.00
2022-12-13T13:58:49.156Z,27.94
2022-12-13T14:01:58.246Z,27.96
2022-12-13T14:04:56.748Z,28.07
2022-12-13T14:07:57.242Z,27.73
2022-12-13T14:10:51.777Z,27.84
2022-12-13T14:13:30.246Z,27.77
2022-12-13T14:16:20.295Z,27.57
2022-12-13T14:19:20.405Z,27.84
2022-12-13T14:22:17.411Z,27.80
2022-12-13T14:24:59.066Z,27.92
2022-12-13T14:27:37.609Z,27.80
2022-12-13T14:30:26.885Z,27.86
2022-12-13T14:32:51.085Z,28.01
2022-12-13T14:35:49.822Z,27.94
2022-12-13T14:38:24.506Z,27.89
2022-12-13T14:40:53.002Z,27.90
2022-12-13T14:43:24.588Z,27.70
2022-12-13T14:46:02.285Z,27.64
2022-12-13T14:48:29.674Z,27.43
2022-12-13T14:50:56.232Z,27.31
2022-12-13T14:53:28.858Z,27.45
2022-12-13T14:56:08.261Z,27.06
2022-12-13T14:58:36.922Z,27.08
2022-12-13T15:01:07.655Z,26.98
2022-12-13T15:03:35.139Z,27.13
2022-12-13T15:06:01.703Z,26.92
2022-12-13T15:08:28.446Z,26.99
2022-12-13T15:10:59.665Z,26.67
2022-12-13T15:13:42.270Z,26.84
2022-12-13T15:16:21.891Z,26.87
2022-12-13T15:18:50.630Z,26.96
2022-12-13T15:21:24.535Z,26.99
2022-12-13T15:23:51.572Z,27.04
2022-12-13T15:26:29.131Z,26.92
2022-12-13T15:29:09.788Z,26.87
2022-12-13T15:31:37.231Z,26.99
2022-12-13T15:34:29.425Z,27.12
2022-12-13T15:37:06.948Z,27.25
2022-12-13T15:39:37.962Z,27.10
2022-12-13T15:42:04.422Z,27.00
2022-12-13T15:44:45.824Z,26.86
2022-12-13T15:47:27.855Z,26.98
2022-12-13T15:50:01.499Z,26.89
2022-12-13T15:52:29.669Z,26.72
2022-12-13T15:55:05.902Z,26.54
2022-12-13T15:57:56.302Z,26.67
2022-12-13T16:00:31.018Z,26.46
2022-12-13T16:03:18.984Z,26.27
2022-12-13T16:05:50.144Z,26.11
2022-12-13T16:08:33.442Z,25.95
2022-12-13T16:11:00.083Z,25.75
2022-12-13T16:13:33.649Z,25.64
2022-12-13T16:16:26.866Z,25.63
2022-12-13T16:18:58.673Z,25.69
2022-12-13T16:21:25.545Z,25.68
2022-12-13T16:23:51.984Z,25.46
2022-12-13T16:26:23.258Z,25.69
2022-12-13T16:28:49.701Z,25.85
2022-12-13T16:31:18.276Z,25.69
2022-12-13T16:33:45.531Z,25.48
2022-12-13T16:36:11.983Z,25.44
2022-12-13T16:38:38.550Z,25.57
2022-12-13T16:41:09.334Z,25.33
2022-12-13T16:43:44.507Z,25.36
2022-12-13T16:47:18.078Z,25.35
2022-12-13T16:48:57.474Z,25.46
2022-12-13T16:51:23.921Z,25.41
2022-12-13T16:53:50.363Z,25.55
2022-12-13T16:56:21.424Z,25.63
2022-12-13T16:58:50.287Z,25.42
2022-12-13T17:01:20.380Z,25.36
2022-12-13T17:03:47.155Z,25.00
2022-12-13T17:06:13.696Z,25.50
2022-12-13T17:08:41.104Z,25.02
2022-12-13T17:11:14.572Z,25.35
2022-12-13T17:13:44.860Z,25.43
2022-12-13T17:16:11.414Z,25.48
2022-12-13T17:18:37.970Z,25.82
2022-12-13T17:21:08.062Z,25.89
2022-12-13T17:23:34.529Z,25.77
2022-12-13T17:26:07.591Z,25.92
2022-12-13T17:28:34.122Z,25.85
2022-12-13T17:31:13.603Z,26.09
2022-12-13T17:33:40.644Z,26.03
2022-12-13T17:36:07.982Z,25.86
2022-12-13T17:38:34.602Z,26.11
2022-12-13T17:41:01.105Z,25.90
2022-12-13T17:43:34.455Z,26.13
2022-12-13T17:46:02.822Z,26.05
2022-12-13T17:48:34.193Z,26.04
2022-12-13T17:51:07.313Z,26.20
2022-12-13T17:53:33.885Z,26.02
2022-12-13T17:56:01.862Z,25.99
2022-12-13T17:58:29.268Z,26.11
2022-12-13T18:00:56.012Z,25.99
2022-12-13T18:03:22.927Z,26.00
2022-12-13T18:05:59.107Z,25.75
2022-12-13T18:08:26.164Z,25.64
2022-12-13T18:11:15.726Z,25.99
2022-12-13T18:13:40.874Z,26.04
2022-12-13T18:16:08.391Z,26.35
2022-12-13T18:18:35.200Z,26.43
2022-12-13T18:21:09.044Z,26.64
2022-12-13T18:23:35.667Z,26.53
2022-12-13T18:26:04.252Z,26.68
2022-12-13T18:28:31.408Z,26.72
2022-12-13T18:31:08.712Z,26.86
2022-12-13T18:33:35.837Z,26.88
2022-12-13T18:36:02.877Z,26.98
2022-12-13T18:38:36.199Z,27.28
2022-12-13T18:41:07.171Z,27.22
2022-12-13T18:43:33.803Z,27.14
2022-12-13T18:46:06.360Z,27.39
2022-12-13T18:48:33.767Z,27.48
2022-12-13T18:51:01.312Z,27.59
2022-12-13T18:53:28.622Z,27.49
2022-12-13T18:56:22.087Z,27.09
2022-12-13T18:58:49.098Z,27.09
2022-12-13T19:01:16.544Z,27.01
2022-12-13T19:03:45.047Z,26.84
2022-12-13T19:06:18.938Z,27.04
2022-12-13T19:08:52.575Z,27.42
2022-12-13T19:11:19.554Z,27.62
2022-12-13T19:13:46.528Z,27.42
2022-12-13T19:16:14.615Z,27.55
2022-12-13T19:18:41.587Z,27.44
2022-12-13T19:21:09.103Z,27.40
2022-12-13T19:23:35.974Z,27.70
2022-12-13T19:26:07.442Z,27.75
2022-12-13T19:28:34.260Z,27.51
2022-12-13T19:31:07.269Z,27.57
2022-12-13T19:33:33.808Z,27.76
2022-12-13T19:36:00.606Z,27.94
2022-12-13T19:38:27.095Z,28.24
2022-12-13T19:40:53.634Z,28.30
2022-12-13T19:43:22.963Z,28.09
2022-12-13T19:45:49.508Z,28.12
2022-12-13T19:48:16.164Z,28.25
2022-12-13T19:50:42.662Z,28.47
2022-12-13T19:53:09.138Z,28.35
2022-12-13T19:55:35.674Z,28.44
2022-12-13T19:58:02.187Z,28.56
2022-12-13T20:00:28.747Z,28.39
2022-12-13T20:02:55.745Z,28.40
2022-12-13T20:05:22.284Z,28.48
2022-12-13T20:07:48.757Z,28.54
2022-12-13T20:10:15.260Z,28.44
2022-12-13T20:12:42.135Z,28.39
2022-12-13T20:15:09.312Z,28.42
2022-12-13T20:17:36.120Z,28.43
2022-12-13T20:20:03.940Z,27.98
2022-12-13T20:22:30.978Z,27.87
2022-12-13T20:24:57.424Z,27.42
2022-12-13T20:27:23.913Z,27.45
2022-12-13T20:29:50.418Z,27.54
2022-12-13T20:32:17.031Z,27.47
2022-12-13T20:34:43.510Z,27.34
2022-12-13T20:37:10.036Z,27.36
2022-12-13T20:39:36.508Z,27.45
2022-12-13T20:42:02.987Z,27.48
2022-12-13T20:44:29.531Z,27.39
2022-12-13T20:46:56.129Z,27.30
2022-12-13T20:49:22.678Z,27.20
2022-12-13T20:51:49.146Z,27.09
2022-12-13T20:54:15.655Z,27.23
2022-12-13T20:56:42.121Z,27.19
2022-12-13T20:59:10.677Z,27.12
2022-12-13T21:01:38.407Z,27.32
2022-12-13T21:04:05.475Z,27.11
2022-12-13T21:06:33.003Z,27.12
2022-12-13T21:09:03.040Z,27.05
2022-12-13T21:11:34.943Z,27.07
2022-12-13T21:14:22.237Z,27.42
2022-12-13T21:16:55.590Z,27.49
2022-12-13T21:19:26.663Z,27.33
2022-12-13T21:21:53.396Z,27.07
2022-12-13T21:24:20.394Z,27.23
2022-12-13T21:26:46.906Z,26.38
2022-12-13T21:29:13.534Z,26.51
2022-12-13T21:31:41.116Z,26.26
2022-12-13T21:34:07.616Z,25.46
2022-12-13T21:36:35.936Z,25.66
2022-12-13T21:39:05.061Z,25.56
2022-12-13T21:41:31.593Z,26.82
2022-12-13T21:44:00.318Z,26.94
2022-12-13T21:46:47.522Z,27.10
2022-12-13T21:49:14.332Z,27.10
2022-12-13T21:51:46.039Z,27.05
2022-12-13T21:54:14.524Z,27.58
2022-12-13T21:56:59.308Z,27.36
2022-12-13T21:59:26.569Z,27.75
2022-12-13T22:02:12.702Z,27.70
2022-12-13T22:04:44.514Z,27.62
2022-12-13T22:07:21.468Z,27.84
2022-12-13T22:09:48.415Z,27.80
2022-12-13T22:12:18.253Z,27.96
2022-12-13T22:14:45.675Z,28.20
2022-12-13T22:17:12.186Z,28.19
2022-12-13T22:19:38.821Z,28.30
2022-12-13T22:22:05.492Z,28.18
2022-12-13T22:24:32.214Z,28.33
2022-12-13T22:26:58.664Z,28.22
2022-12-13T22:29:25.114Z,28.45
2022-12-13T22:31:51.882Z,28.54
2022-12-13T22:34:18.612Z,28.67
2022-12-13T22:36:45.060Z,28.43
2022-12-13T22:39:21.710Z,28.75
2022-12-13T22:41:48.444Z,28.59
2022-12-13T22:44:15.549Z,28.66
2022-12-13T22:46:42.050Z,28.67
2022-12-13T22:49:08.819Z,28.62
2022-12-13T22:51:35.428Z,28.78
2022-12-13T22:54:01.885Z,28.73
2022-12-13T22:56:28.475Z,28.54
2022-12-13T22:58:55.952Z,28.65
2022-12-13T23:01:24.561Z,29.03
2022-12-13T23:03:51.269Z,28.72
2022-12-13T23:06:19.707Z,28.51
2022-12-13T23:08:49.173Z,28.69
2022-12-13T23:11:34.255Z,28.76
2022-12-13T23:14:01.558Z,28.43
2022-12-13T23:16:29.521Z,28.50
2022-12-13T23:19:16.936Z,28.76
2022-12-13T23:21:42.529Z,28.65
2022-12-13T23:24:15.158Z,28.53
2022-12-13T23:26:41.605Z,28.61
2022-12-13T23:29:08.337Z,28.66
2022-12-13T23:31:41.299Z,28.57
2022-12-13T23:34:08.210Z,28.52
2022-12-13T23:36:34.710Z,28.80
2022-12-13T23:39:01.897Z,28.27
2022-12-13T23:41:33.489Z,27.70
2022-12-13T23:44:00.559Z,27.74
2022-12-13T23:46:31.641Z,27.34
2022-12-13T23:48:58.758Z,27.47
2022-12-13T23:51:25.796Z,27.35
2022-12-13T23:53:53.004Z,27.14
2022-12-13T23:56:19.487Z,27.12
2022-12-13T23:58:46.110Z,27.11
